sensor_id;sensor_type;location;lat;lon;timestamp;P1;durP1;ratioP1;P2;durP2;ratioP2
52102;SDS011;38101;53.126;6.878;2023-07-29T00:01:31;9.85;;;6.18;;
52102;SDS011;38101;53.126;6.878;2023-07-29T00:03:58;7.68;;;6.35;;
52102;SDS011;38101;53.126;6.878;2023-07-29T00:06:24;8.98;;;6.35;;
52102;SDS011;38101;53.126;6.878;2023-07-29T00:08:50;7.88;;;6.97;;
52102;SDS011;38101;53.126;6.878;2023-07-29T00:11:15;9.00;;;6.93;;
52102;SDS011;38101;53.126;6.878;2023-07-29T00:13:41;8.40;;;7.05;;
52102;SDS011;38101;53.126;6.878;2023-07-29T00:16:07;8.73;;;6.75;;
52102;SDS011;38101;53.126;6.878;2023-07-29T00:18:32;8.15;;;6.88;;
52102;SDS011;38101;53.126;6.878;2023-07-29T00:20:58;9.02;;;7.22;;
52102;SDS011;38101;53.126;6.878;2023-07-29T00:23:24;9.93;;;7.20;;
52102;SDS011;38101;53.126;6.878;2023-07-29T00:25:49;8.27;;;6.78;;
52102;SDS011;38101;53.126;6.878;2023-07-29T00:28:15;8.48;;;7.00;;
52102;SDS011;38101;53.126;6.878;2023-07-29T00:30:41;7.88;;;6.90;;
52102;SDS011;38101;53.126;6.878;2023-07-29T00:33:07;8.52;;;6.72;;
52102;SDS011;38101;53.126;6.878;2023-07-29T00:35:33;8.93;;;7.53;;
52102;SDS011;38101;53.126;6.878;2023-07-29T00:37:59;10.30;;;7.53;;
52102;SDS011;38101;53.126;6.878;2023-07-29T00:40:25;8.98;;;7.72;;
52102;SDS011;38101;53.126;6.878;2023-07-29T00:42:53;9.50;;;7.10;;
52102;SDS011;38101;53.126;6.878;2023-07-29T00:45:19;9.27;;;7.30;;
52102;SDS011;38101;53.126;6.878;2023-07-29T00:47:45;9.65;;;7.53;;
52102;SDS011;38101;53.126;6.878;2023-07-29T00:50:12;8.93;;;6.53;;
52102;SDS011;38101;53.126;6.878;2023-07-29T00:52:39;9.02;;;7.15;;
52102;SDS011;38101;53.126;6.878;2023-07-29T00:55:05;10.32;;;7.53;;
52102;SDS011;38101;53.126;6.878;2023-07-29T00:57:32;10.77;;;7.22;;
52102;SDS011;38101;53.126;6.878;2023-07-29T00:59:59;10.75;;;7.28;;
52102;SDS011;38101;53.126;6.878;2023-07-29T01:02:25;9.50;;;7.55;;
52102;SDS011;38101;53.126;6.878;2023-07-29T01:04:54;10.45;;;7.35;;
52102;SDS011;38101;53.126;6.878;2023-07-29T01:10:03;9.80;;;7.18;;
52102;SDS011;38101;53.126;6.878;2023-07-29T01:12:50;9.02;;;7.32;;
52102;SDS011;38101;53.126;6.878;2023-07-29T01:17:52;8.57;;;6.65;;
52102;SDS011;38101;53.126;6.878;2023-07-29T01:20:20;9.63;;;7.15;;
52102;SDS011;38101;53.126;6.878;2023-07-29T01:22:48;9.60;;;7.22;;
52102;SDS011;38101;53.126;6.878;2023-07-29T01:25:14;9.65;;;7.43;;
52102;SDS011;38101;53.126;6.878;2023-07-29T01:27:49;8.77;;;6.85;;
52102;SDS011;38101;53.126;6.878;2023-07-29T01:30:16;8.02;;;6.63;;
52102;SDS011;38101;53.126;6.878;2023-07-29T01:32:47;9.45;;;7.43;;
52102;SDS011;38101;53.126;6.878;2023-07-29T01:35:33;9.23;;;6.93;;
52102;SDS011;38101;53.126;6.878;2023-07-29T01:38:19;10.05;;;7.70;;
52102;SDS011;38101;53.126;6.878;2023-07-29T01:40:50;8.95;;;7.43;;
52102;SDS011;38101;53.126;6.878;2023-07-29T01:43:17;9.07;;;6.88;;
52102;SDS011;38101;53.126;6.878;2023-07-29T01:45:48;11.32;;;6.97;;
52102;SDS011;38101;53.126;6.878;2023-07-29T01:48:14;9.30;;;6.70;;
52102;SDS011;38101;53.126;6.878;2023-07-29T01:50:40;10.48;;;7.25;;
52102;SDS011;38101;53.126;6.878;2023-07-29T01:53:06;10.77;;;7.80;;
52102;SDS011;38101;53.126;6.878;2023-07-29T01:55:31;11.98;;;8.55;;
52102;SDS011;38101;53.126;6.878;2023-07-29T01:57:57;9.00;;;7.68;;
52102;SDS011;38101;53.126;6.878;2023-07-29T02:00:23;9.57;;;6.50;;
52102;SDS011;38101;53.126;6.878;2023-07-29T02:02:49;9.18;;;6.97;;
52102;SDS011;38101;53.126;6.878;2023-07-29T02:05:14;9.50;;;6.88;;
52102;SDS011;38101;53.126;6.878;2023-07-29T02:07:40;8.43;;;6.65;;
52102;SDS011;38101;53.126;6.878;2023-07-29T02:10:06;7.88;;;6.45;;
52102;SDS011;38101;53.126;6.878;2023-07-29T02:12:32;9.85;;;7.47;;
52102;SDS011;38101;53.126;6.878;2023-07-29T02:14:58;8.30;;;6.50;;
52102;SDS011;38101;53.126;6.878;2023-07-29T02:17:24;8.52;;;7.18;;
52102;SDS011;38101;53.126;6.878;2023-07-29T02:19:51;9.43;;;7.13;;
52102;SDS011;38101;53.126;6.878;2023-07-29T02:22:17;10.13;;;7.40;;
52102;SDS011;38101;53.126;6.878;2023-07-29T02:24:43;8.82;;;6.75;;
52102;SDS011;38101;53.126;6.878;2023-07-29T02:27:10;8.38;;;6.22;;
52102;SDS011;38101;53.126;6.878;2023-07-29T02:29:36;7.35;;;5.95;;
52102;SDS011;38101;53.126;6.878;2023-07-29T02:32:02;8.38;;;6.38;;
52102;SDS011;38101;53.126;6.878;2023-07-29T02:34:28;8.43;;;6.63;;
52102;SDS011;38101;53.126;6.878;2023-07-29T02:36:54;9.38;;;6.18;;
52102;SDS011;38101;53.126;6.878;2023-07-29T02:39:20;9.10;;;6.78;;
52102;SDS011;38101;53.126;6.878;2023-07-29T02:41:46;9.25;;;6.15;;
52102;SDS011;38101;53.126;6.878;2023-07-29T02:44:12;9.48;;;6.35;;
52102;SDS011;38101;53.126;6.878;2023-07-29T02:46:38;8.27;;;6.40;;
52102;SDS011;38101;53.126;6.878;2023-07-29T02:49:03;8.50;;;6.43;;
52102;SDS011;38101;53.126;6.878;2023-07-29T02:51:30;8.15;;;6.50;;
52102;SDS011;38101;53.126;6.878;2023-07-29T02:53:56;7.60;;;6.25;;
52102;SDS011;38101;53.126;6.878;2023-07-29T02:56:21;9.45;;;6.50;;
52102;SDS011;38101;53.126;6.878;2023-07-29T02:58:47;8.75;;;6.32;;
52102;SDS011;38101;53.126;6.878;2023-07-29T03:01:13;8.57;;;6.60;;
52102;SDS011;38101;53.126;6.878;2023-07-29T03:03:39;8.25;;;6.20;;
52102;SDS011;38101;53.126;6.878;2023-07-29T03:06:05;8.13;;;6.47;;
52102;SDS011;38101;53.126;6.878;2023-07-29T03:08:33;7.97;;;5.72;;
52102;SDS011;38101;53.126;6.878;2023-07-29T03:11:04;8.75;;;6.13;;
52102;SDS011;38101;53.126;6.878;2023-07-29T03:13:32;8.15;;;6.47;;
52102;SDS011;38101;53.126;6.878;2023-07-29T03:16:08;8.30;;;6.18;;
52102;SDS011;38101;53.126;6.878;2023-07-29T03:18:42;11.50;;;6.60;;
52102;SDS011;38101;53.126;6.878;2023-07-29T03:21:08;7.50;;;5.97;;
52102;SDS011;38101;53.126;6.878;2023-07-29T03:23:35;8.25;;;6.13;;
52102;SDS011;38101;53.126;6.878;2023-07-29T03:26:01;8.88;;;6.38;;
52102;SDS011;38101;53.126;6.878;2023-07-29T03:28:35;9.15;;;6.30;;
52102;SDS011;38101;53.126;6.878;2023-07-29T03:31:02;8.30;;;6.10;;
52102;SDS011;38101;53.126;6.878;2023-07-29T03:33:28;9.05;;;6.20;;
52102;SDS011;38101;53.126;6.878;2023-07-29T03:35:54;7.20;;;5.45;;
52102;SDS011;38101;53.126;6.878;2023-07-29T03:38:19;8.68;;;5.78;;
52102;SDS011;38101;53.126;6.878;2023-07-29T03:40:45;8.55;;;5.65;;
52102;SDS011;38101;53.126;6.878;2023-07-29T03:43:11;8.13;;;6.72;;
52102;SDS011;38101;53.126;6.878;2023-07-29T03:45:37;8.90;;;6.38;;
52102;SDS011;38101;53.126;6.878;2023-07-29T03:48:04;8.73;;;5.50;;
52102;SDS011;38101;53.126;6.878;2023-07-29T03:50:30;8.75;;;5.60;;
52102;SDS011;38101;53.126;6.878;2023-07-29T03:52:58;7.18;;;5.28;;
52102;SDS011;38101;53.126;6.878;2023-07-29T03:55:23;7.40;;;5.43;;
52102;SDS011;38101;53.126;6.878;2023-07-29T03:57:49;8.77;;;5.63;;
52102;SDS011;38101;53.126;6.878;2023-07-29T04:00:15;7.57;;;5.47;;
52102;SDS011;38101;53.126;6.878;2023-07-29T04:02:41;7.30;;;4.90;;
52102;SDS011;38101;53.126;6.878;2023-07-29T04:05:07;7.80;;;5.60;;
52102;SDS011;38101;53.126;6.878;2023-07-29T04:07:36;7.63;;;5.22;;
52102;SDS011;38101;53.126;6.878;2023-07-29T04:10:02;6.72;;;4.70;;
52102;SDS011;38101;53.126;6.878;2023-07-29T04:12:30;7.03;;;4.90;;
52102;SDS011;38101;53.126;6.878;2023-07-29T04:14:56;6.85;;;5.10;;
52102;SDS011;38101;53.126;6.878;2023-07-29T04:17:21;7.22;;;4.70;;
52102;SDS011;38101;53.126;6.878;2023-07-29T04:19:47;7.20;;;5.10;;
52102;SDS011;38101;53.126;6.878;2023-07-29T04:22:13;7.57;;;5.20;;
52102;SDS011;38101;53.126;6.878;2023-07-29T04:24:40;8.63;;;5.10;;
52102;SDS011;38101;53.126;6.878;2023-07-29T04:27:06;5.97;;;4.78;;
52102;SDS011;38101;53.126;6.878;2023-07-29T04:29:31;6.95;;;4.93;;
52102;SDS011;38101;53.126;6.878;2023-07-29T04:31:57;7.28;;;5.03;;
52102;SDS011;38101;53.126;6.878;2023-07-29T04:34:23;6.85;;;4.78;;
52102;SDS011;38101;53.126;6.878;2023-07-29T04:36:48;7.47;;;4.72;;
52102;SDS011;38101;53.126;6.878;2023-07-29T04:39:14;7.43;;;4.95;;
52102;SDS011;38101;53.126;6.878;2023-07-29T04:41:40;6.65;;;4.40;;
52102;SDS011;38101;53.126;6.878;2023-07-29T04:44:06;7.40;;;4.72;;
52102;SDS011;38101;53.126;6.878;2023-07-29T04:46:32;6.97;;;4.38;;
52102;SDS011;38101;53.126;6.878;2023-07-29T04:48:58;5.80;;;4.30;;
52102;SDS011;38101;53.126;6.878;2023-07-29T04:51:24;5.72;;;4.22;;
52102;SDS011;38101;53.126;6.878;2023-07-29T04:53:50;5.82;;;4.18;;
52102;SDS011;38101;53.126;6.878;2023-07-29T04:56:16;5.82;;;4.03;;
52102;SDS011;38101;53.126;6.878;2023-07-29T04:58:41;6.28;;;4.05;;
52102;SDS011;38101;53.126;6.878;2023-07-29T05:01:07;7.65;;;4.30;;
52102;SDS011;38101;53.126;6.878;2023-07-29T05:03:33;6.50;;;4.05;;
52102;SDS011;38101;53.126;6.878;2023-07-29T05:05:59;5.63;;;3.88;;
52102;SDS011;38101;53.126;6.878;2023-07-29T05:08:28;6.78;;;3.80;;
52102;SDS011;38101;53.126;6.878;2023-07-29T05:10:53;4.55;;;3.55;;
52102;SDS011;38101;53.126;6.878;2023-07-29T05:13:20;5.45;;;3.55;;
52102;SDS011;38101;53.126;6.878;2023-07-29T05:15:49;5.00;;;3.83;;
52102;SDS011;38101;53.126;6.878;2023-07-29T05:18:15;4.85;;;3.42;;
52102;SDS011;38101;53.126;6.878;2023-07-29T05:20:41;6.70;;;3.83;;
52102;SDS011;38101;53.126;6.878;2023-07-29T05:23:07;5.70;;;3.60;;
52102;SDS011;38101;53.126;6.878;2023-07-29T05:25:33;6.50;;;4.70;;
52102;SDS011;38101;53.126;6.878;2023-07-29T05:28:00;6.05;;;3.88;;
52102;SDS011;38101;53.126;6.878;2023-07-29T05:30:26;6.65;;;3.60;;
52102;SDS011;38101;53.126;6.878;2023-07-29T05:32:55;7.15;;;3.50;;
52102;SDS011;38101;53.126;6.878;2023-07-29T05:35:22;5.22;;;3.25;;
52102;SDS011;38101;53.126;6.878;2023-07-29T05:37:48;5.45;;;3.55;;
52102;SDS011;38101;53.126;6.878;2023-07-29T05:40:13;5.85;;;3.78;;
52102;SDS011;38101;53.126;6.878;2023-07-29T05:42:39;5.85;;;3.63;;
52102;SDS011;38101;53.126;6.878;2023-07-29T05:45:05;5.22;;;3.40;;
52102;SDS011;38101;53.126;6.878;2023-07-29T05:47:31;4.53;;;3.50;;
52102;SDS011;38101;53.126;6.878;2023-07-29T05:49:57;5.50;;;3.15;;
52102;SDS011;38101;53.126;6.878;2023-07-29T05:52:23;6.53;;;3.28;;
52102;SDS011;38101;53.126;6.878;2023-07-29T05:54:48;4.93;;;3.03;;
52102;SDS011;38101;53.126;6.878;2023-07-29T05:57:14;4.22;;;3.08;;
52102;SDS011;38101;53.126;6.878;2023-07-29T05:59:40;4.75;;;3.15;;
52102;SDS011;38101;53.126;6.878;2023-07-29T06:02:06;4.75;;;2.78;;
52102;SDS011;38101;53.126;6.878;2023-07-29T06:04:31;4.78;;;2.88;;
52102;SDS011;38101;53.126;6.878;2023-07-29T06:06:57;5.68;;;3.08;;
52102;SDS011;38101;53.126;6.878;2023-07-29T06:09:23;4.70;;;2.88;;
52102;SDS011;38101;53.126;6.878;2023-07-29T06:11:50;6.07;;;2.80;;
52102;SDS011;38101;53.126;6.878;2023-07-29T06:14:16;8.95;;;3.17;;
52102;SDS011;38101;53.126;6.878;2023-07-29T06:16:41;5.22;;;2.90;;
52102;SDS011;38101;53.126;6.878;2023-07-29T06:19:07;3.80;;;2.95;;
52102;SDS011;38101;53.126;6.878;2023-07-29T06:21:34;3.80;;;2.50;;
52102;SDS011;38101;53.126;6.878;2023-07-29T06:24:00;5.70;;;2.90;;
52102;SDS011;38101;53.126;6.878;2023-07-29T06:26:26;5.10;;;2.88;;
52102;SDS011;38101;53.126;6.878;2023-07-29T06:28:51;5.25;;;2.80;;
52102;SDS011;38101;53.126;6.878;2023-07-29T06:31:17;4.45;;;2.47;;
52102;SDS011;38101;53.126;6.878;2023-07-29T06:33:43;3.65;;;2.38;;
52102;SDS011;38101;53.126;6.878;2023-07-29T06:36:08;3.95;;;2.58;;
52102;SDS011;38101;53.126;6.878;2023-07-29T06:38:34;5.18;;;2.80;;
52102;SDS011;38101;53.126;6.878;2023-07-29T06:41:00;3.58;;;2.40;;
52102;SDS011;38101;53.126;6.878;2023-07-29T06:43:25;4.93;;;2.80;;
52102;SDS011;38101;53.126;6.878;2023-07-29T06:45:51;4.45;;;2.88;;
52102;SDS011;38101;53.126;6.878;2023-07-29T06:48:17;5.32;;;2.55;;
52102;SDS011;38101;53.126;6.878;2023-07-29T06:50:44;4.85;;;2.72;;
52102;SDS011;38101;53.126;6.878;2023-07-29T06:53:09;6.13;;;2.70;;
52102;SDS011;38101;53.126;6.878;2023-07-29T06:55:35;4.05;;;2.88;;
52102;SDS011;38101;53.126;6.878;2023-07-29T06:58:01;4.20;;;2.75;;
52102;SDS011;38101;53.126;6.878;2023-07-29T07:00:27;4.68;;;2.83;;
52102;SDS011;38101;53.126;6.878;2023-07-29T07:02:52;6.50;;;3.28;;
52102;SDS011;38101;53.126;6.878;2023-07-29T07:05:19;5.63;;;2.92;;
52102;SDS011;38101;53.126;6.878;2023-07-29T07:07:45;4.10;;;2.70;;
52102;SDS011;38101;53.126;6.878;2023-07-29T07:10:11;5.57;;;2.80;;
52102;SDS011;38101;53.126;6.878;2023-07-29T07:12:36;6.22;;;2.75;;
52102;SDS011;38101;53.126;6.878;2023-07-29T07:15:02;5.35;;;3.13;;
52102;SDS011;38101;53.126;6.878;2023-07-29T07:17:28;5.97;;;3.10;;
52102;SDS011;38101;53.126;6.878;2023-07-29T07:19:53;6.70;;;3.80;;
52102;SDS011;38101;53.126;6.878;2023-07-29T07:22:19;5.03;;;3.30;;
52102;SDS011;38101;53.126;6.878;2023-07-29T07:24:45;7.90;;;3.45;;
52102;SDS011;38101;53.126;6.878;2023-07-29T07:27:11;8.52;;;3.90;;
52102;SDS011;38101;53.126;6.878;2023-07-29T07:29:36;4.95;;;3.13;;
52102;SDS011;38101;53.126;6.878;2023-07-29T07:32:02;7.55;;;3.80;;
52102;SDS011;38101;53.126;6.878;2023-07-29T07:34:28;5.43;;;3.40;;
52102;SDS011;38101;53.126;6.878;2023-07-29T07:36:54;5.72;;;3.60;;
52102;SDS011;38101;53.126;6.878;2023-07-29T07:39:19;6.60;;;3.60;;
52102;SDS011;38101;53.126;6.878;2023-07-29T07:41:45;8.35;;;3.75;;
52102;SDS011;38101;53.126;6.878;2023-07-29T07:44:11;5.85;;;4.18;;
52102;SDS011;38101;53.126;6.878;2023-07-29T07:46:40;7.72;;;4.80;;
52102;SDS011;38101;53.126;6.878;2023-07-29T07:49:06;7.55;;;4.32;;
52102;SDS011;38101;53.126;6.878;2023-07-29T07:51:32;6.35;;;4.70;;
52102;SDS011;38101;53.126;6.878;2023-07-29T07:53:57;7.68;;;4.45;;
52102;SDS011;38101;53.126;6.878;2023-07-29T07:56:23;6.68;;;4.10;;
52102;SDS011;38101;53.126;6.878;2023-07-29T07:58:49;9.35;;;4.32;;
52102;SDS011;38101;53.126;6.878;2023-07-29T08:01:14;9.02;;;5.60;;
52102;SDS011;38101;53.126;6.878;2023-07-29T08:03:40;6.35;;;4.80;;
52102;SDS011;38101;53.126;6.878;2023-07-29T08:06:06;9.75;;;5.53;;
52102;SDS011;38101;53.126;6.878;2023-07-29T08:08:31;7.53;;;5.13;;
52102;SDS011;38101;53.126;6.878;2023-07-29T08:10:57;8.70;;;4.95;;
52102;SDS011;38101;53.126;6.878;2023-07-29T08:13:23;7.03;;;5.40;;
52102;SDS011;38101;53.126;6.878;2023-07-29T08:15:50;8.57;;;5.57;;
52102;SDS011;38101;53.126;6.878;2023-07-29T08:18:17;8.75;;;5.32;;
52102;SDS011;38101;53.126;6.878;2023-07-29T08:20:52;7.47;;;5.60;;
52102;SDS011;38101;53.126;6.878;2023-07-29T08:23:33;8.57;;;5.40;;
52102;SDS011;38101;53.126;6.878;2023-07-29T08:26:03;7.90;;;5.28;;
52102;SDS011;38101;53.126;6.878;2023-07-29T08:28:37;7.65;;;5.50;;
52102;SDS011;38101;53.126;6.878;2023-07-29T08:31:04;6.47;;;4.60;;
52102;SDS011;38101;53.126;6.878;2023-07-29T08:33:30;8.55;;;4.70;;
52102;SDS011;38101;53.126;6.878;2023-07-29T08:35:58;7.03;;;5.18;;
52102;SDS011;38101;53.126;6.878;2023-07-29T08:38:24;6.80;;;4.47;;
52102;SDS011;38101;53.126;6.878;2023-07-29T08:41:04;7.72;;;4.78;;
52102;SDS011;38101;53.126;6.878;2023-07-29T08:43:38;6.10;;;4.35;;
52102;SDS011;38101;53.126;6.878;2023-07-29T08:46:07;7.57;;;4.75;;
52102;SDS011;38101;53.126;6.878;2023-07-29T08:48:39;8.05;;;4.90;;
52102;SDS011;38101;53.126;6.878;2023-07-29T08:51:07;5.45;;;4.40;;
52102;SDS011;38101;53.126;6.878;2023-07-29T08:53:34;6.05;;;4.10;;
52102;SDS011;38101;53.126;6.878;2023-07-29T08:56:00;4.05;;;3.50;;
52102;SDS011;38101;53.126;6.878;2023-07-29T08:58:26;5.90;;;3.60;;
52102;SDS011;38101;53.126;6.878;2023-07-29T09:00:52;6.18;;;3.70;;
52102;SDS011;38101;53.126;6.878;2023-07-29T09:03:19;6.85;;;3.67;;
52102;SDS011;38101;53.126;6.878;2023-07-29T09:05:45;10.02;;;3.67;;
52102;SDS011;38101;53.126;6.878;2023-07-29T09:08:11;4.72;;;3.50;;
52102;SDS011;38101;53.126;6.878;2023-07-29T09:10:38;5.00;;;2.97;;
52102;SDS011;38101;53.126;6.878;2023-07-29T09:13:04;5.60;;;3.20;;
52102;SDS011;38101;53.126;6.878;2023-07-29T09:15:31;7.00;;;3.60;;
52102;SDS011;38101;53.126;6.878;2023-07-29T09:17:59;5.15;;;3.72;;
52102;SDS011;38101;53.126;6.878;2023-07-29T09:20:33;6.63;;;3.67;;
52102;SDS011;38101;53.126;6.878;2023-07-29T09:22:59;5.45;;;3.50;;
52102;SDS011;38101;53.126;6.878;2023-07-29T09:25:25;6.80;;;3.75;;
52102;SDS011;38101;53.126;6.878;2023-07-29T09:27:52;4.80;;;3.47;;
52102;SDS011;38101;53.126;6.878;2023-07-29T09:30:23;9.32;;;3.40;;
52102;SDS011;38101;53.126;6.878;2023-07-29T09:32:52;6.35;;;3.40;;
52102;SDS011;38101;53.126;6.878;2023-07-29T09:35:20;4.40;;;3.20;;
52102;SDS011;38101;53.126;6.878;2023-07-29T09:37:46;6.47;;;3.13;;
52102;SDS011;38101;53.126;6.878;2023-07-29T09:40:15;5.57;;;3.17;;
52102;SDS011;38101;53.126;6.878;2023-07-29T09:42:52;5.65;;;3.70;;
52102;SDS011;38101;53.126;6.878;2023-07-29T09:45:19;4.63;;;3.53;;
52102;SDS011;38101;53.126;6.878;2023-07-29T09:47:46;6.45;;;3.40;;
52102;SDS011;38101;53.126;6.878;2023-07-29T09:50:12;4.32;;;3.30;;
52102;SDS011;38101;53.126;6.878;2023-07-29T09:52:38;6.00;;;3.10;;
52102;SDS011;38101;53.126;6.878;2023-07-29T09:55:04;5.65;;;3.17;;
52102;SDS011;38101;53.126;6.878;2023-07-29T09:57:31;4.32;;;3.05;;
52102;SDS011;38101;53.126;6.878;2023-07-29T09:59:57;5.53;;;3.25;;
52102;SDS011;38101;53.126;6.878;2023-07-29T10:02:23;3.80;;;3.08;;
52102;SDS011;38101;53.126;6.878;2023-07-29T10:04:51;6.22;;;3.03;;
52102;SDS011;38101;53.126;6.878;2023-07-29T10:07:17;3.50;;;2.60;;
52102;SDS011;38101;53.126;6.878;2023-07-29T10:09:45;5.18;;;2.60;;
52102;SDS011;38101;53.126;6.878;2023-07-29T10:12:11;6.45;;;2.92;;
52102;SDS011;38101;53.126;6.878;2023-07-29T10:14:38;4.53;;;2.70;;
52102;SDS011;38101;53.126;6.878;2023-07-29T10:17:07;4.75;;;2.72;;
52102;SDS011;38101;53.126;6.878;2023-07-29T10:19:34;7.72;;;3.10;;
52102;SDS011;38101;53.126;6.878;2023-07-29T10:22:00;4.63;;;2.30;;
52102;SDS011;38101;53.126;6.878;2023-07-29T10:24:32;3.38;;;2.20;;
52102;SDS011;38101;53.126;6.878;2023-07-29T10:26:59;3.42;;;2.45;;
52102;SDS011;38101;53.126;6.878;2023-07-29T10:29:32;4.68;;;2.50;;
52102;SDS011;38101;53.126;6.878;2023-07-29T10:32:04;3.53;;;2.10;;
52102;SDS011;38101;53.126;6.878;2023-07-29T10:34:31;4.53;;;2.45;;
52102;SDS011;38101;53.126;6.878;2023-07-29T10:36:57;4.57;;;2.45;;
52102;SDS011;38101;53.126;6.878;2023-07-29T10:39:24;5.80;;;3.05;;
52102;SDS011;38101;53.126;6.878;2023-07-29T10:41:54;5.22;;;3.00;;
52102;SDS011;38101;53.126;6.878;2023-07-29T10:47:15;2.95;;;2.20;;
52102;SDS011;38101;53.126;6.878;2023-07-29T10:49:49;3.67;;;2.65;;
52102;SDS011;38101;53.126;6.878;2023-07-29T10:55:01;5.38;;;3.05;;
52102;SDS011;38101;53.126;6.878;2023-07-29T10:59:57;4.50;;;3.20;;
52102;SDS011;38101;53.126;6.878;2023-07-29T11:02:28;5.50;;;3.30;;
52102;SDS011;38101;53.126;6.878;2023-07-29T11:04:56;4.90;;;3.95;;
52102;SDS011;38101;53.126;6.878;2023-07-29T11:07:23;7.13;;;3.20;;
52102;SDS011;38101;53.126;6.878;2023-07-29T11:15:03;4.70;;;2.85;;
52102;SDS011;38101;53.126;6.878;2023-07-29T11:17:43;4.82;;;2.63;;
52102;SDS011;38101;53.126;6.878;2023-07-29T11:20:10;3.60;;;2.20;;
52102;SDS011;38101;53.126;6.878;2023-07-29T11:22:37;4.30;;;2.10;;
52102;SDS011;38101;53.126;6.878;2023-07-29T11:25:04;3.53;;;1.77;;
52102;SDS011;38101;53.126;6.878;2023-07-29T11:27:32;4.63;;;2.00;;
52102;SDS011;38101;53.126;6.878;2023-07-29T11:30:02;3.85;;;2.20;;
52102;SDS011;38101;53.126;6.878;2023-07-29T11:32:30;3.70;;;2.20;;
52102;SDS011;38101;53.126;6.878;2023-07-29T11:34:59;7.90;;;2.63;;
52102;SDS011;38101;53.126;6.878;2023-07-29T11:37:30;6.70;;;2.83;;
52102;SDS011;38101;53.126;6.878;2023-07-29T11:39:56;7.50;;;2.75;;
52102;SDS011;38101;53.126;6.878;2023-07-29T11:42:21;4.20;;;2.25;;
52102;SDS011;38101;53.126;6.878;2023-07-29T11:44:47;4.22;;;2.03;;
52102;SDS011;38101;53.126;6.878;2023-07-29T11:47:13;3.58;;;2.22;;
52102;SDS011;38101;53.126;6.878;2023-07-29T11:49:39;4.43;;;2.10;;
52102;SDS011;38101;53.126;6.878;2023-07-29T11:52:06;2.50;;;1.80;;
52102;SDS011;38101;53.126;6.878;2023-07-29T11:54:35;3.10;;;1.80;;
52102;SDS011;38101;53.126;6.878;2023-07-29T11:57:07;3.90;;;1.73;;
52102;SDS011;38101;53.126;6.878;2023-07-29T11:59:34;3.88;;;1.90;;
52102;SDS011;38101;53.126;6.878;2023-07-29T12:02:01;3.80;;;2.00;;
52102;SDS011;38101;53.126;6.878;2023-07-29T12:04:30;3.28;;;2.13;;
52102;SDS011;38101;53.126;6.878;2023-07-29T12:06:56;3.97;;;2.25;;
52102;SDS011;38101;53.126;6.878;2023-07-29T12:09:23;4.20;;;2.17;;
52102;SDS011;38101;53.126;6.878;2023-07-29T12:11:49;4.53;;;2.40;;
52102;SDS011;38101;53.126;6.878;2023-07-29T12:14:16;4.07;;;1.95;;
52102;SDS011;38101;53.126;6.878;2023-07-29T12:16:47;4.70;;;2.30;;
52102;SDS011;38101;53.126;6.878;2023-07-29T12:19:14;4.97;;;2.58;;
52102;SDS011;38101;53.126;6.878;2023-07-29T12:21:41;3.75;;;2.33;;
52102;SDS011;38101;53.126;6.878;2023-07-29T12:24:07;4.15;;;2.38;;
52102;SDS011;38101;53.126;6.878;2023-07-29T12:26:33;4.15;;;2.40;;
52102;SDS011;38101;53.126;6.878;2023-07-29T12:29:14;3.85;;;2.25;;
52102;SDS011;38101;53.126;6.878;2023-07-29T12:31:41;3.70;;;2.22;;
52102;SDS011;38101;53.126;6.878;2023-07-29T12:34:07;8.00;;;2.92;;
52102;SDS011;38101;53.126;6.878;2023-07-29T12:36:43;7.63;;;2.88;;
52102;SDS011;38101;53.126;6.878;2023-07-29T12:39:17;6.25;;;3.08;;
52102;SDS011;38101;53.126;6.878;2023-07-29T12:41:44;7.63;;;3.72;;
52102;SDS011;38101;53.126;6.878;2023-07-29T12:44:10;6.68;;;3.95;;
52102;SDS011;38101;53.126;6.878;2023-07-29T12:46:36;9.40;;;4.45;;
52102;SDS011;38101;53.126;6.878;2023-07-29T12:49:02;5.68;;;3.58;;
52102;SDS011;38101;53.126;6.878;2023-07-29T12:51:28;5.53;;;3.22;;
52102;SDS011;38101;53.126;6.878;2023-07-29T12:53:54;7.60;;;3.10;;
52102;SDS011;38101;53.126;6.878;2023-07-29T12:56:20;7.60;;;3.20;;
52102;SDS011;38101;53.126;6.878;2023-07-29T12:58:45;6.00;;;2.80;;
52102;SDS011;38101;53.126;6.878;2023-07-29T13:01:12;5.70;;;3.13;;
52102;SDS011;38101;53.126;6.878;2023-07-29T13:03:44;5.15;;;3.17;;
52102;SDS011;38101;53.126;6.878;2023-07-29T13:06:10;5.97;;;3.10;;
52102;SDS011;38101;53.126;6.878;2023-07-29T13:08:36;5.88;;;3.22;;
52102;SDS011;38101;53.126;6.878;2023-07-29T13:11:02;5.45;;;2.97;;
52102;SDS011;38101;53.126;6.878;2023-07-29T13:13:29;5.97;;;2.83;;
52102;SDS011;38101;53.126;6.878;2023-07-29T13:15:55;3.78;;;2.58;;
52102;SDS011;38101;53.126;6.878;2023-07-29T13:18:21;4.80;;;2.50;;
52102;SDS011;38101;53.126;6.878;2023-07-29T13:20:47;5.70;;;2.72;;
52102;SDS011;38101;53.126;6.878;2023-07-29T13:23:12;4.57;;;3.05;;
52102;SDS011;38101;53.126;6.878;2023-07-29T13:25:38;5.30;;;2.65;;
52102;SDS011;38101;53.126;6.878;2023-07-29T13:28:04;3.78;;;2.40;;
52102;SDS011;38101;53.126;6.878;2023-07-29T13:30:30;4.38;;;2.45;;
52102;SDS011;38101;53.126;6.878;2023-07-29T13:32:56;4.40;;;2.65;;
52102;SDS011;38101;53.126;6.878;2023-07-29T13:35:22;4.28;;;2.58;;
52102;SDS011;38101;53.126;6.878;2023-07-29T13:37:47;4.45;;;2.67;;
52102;SDS011;38101;53.126;6.878;2023-07-29T13:40:13;5.20;;;2.80;;
52102;SDS011;38101;53.126;6.878;2023-07-29T13:42:39;5.82;;;2.33;;
52102;SDS011;38101;53.126;6.878;2023-07-29T13:45:05;4.93;;;2.70;;
52102;SDS011;38101;53.126;6.878;2023-07-29T13:47:31;4.65;;;2.60;;
52102;SDS011;38101;53.126;6.878;2023-07-29T13:49:57;5.00;;;2.28;;
52102;SDS011;38101;53.126;6.878;2023-07-29T13:52:22;6.25;;;2.42;;
52102;SDS011;38101;53.126;6.878;2023-07-29T13:54:48;4.22;;;2.40;;
52102;SDS011;38101;53.126;6.878;2023-07-29T13:57:14;4.85;;;2.53;;
52102;SDS011;38101;53.126;6.878;2023-07-29T13:59:40;5.05;;;2.50;;
52102;SDS011;38101;53.126;6.878;2023-07-29T14:02:05;6.10;;;2.20;;
52102;SDS011;38101;53.126;6.878;2023-07-29T14:04:32;4.68;;;2.08;;
52102;SDS011;38101;53.126;6.878;2023-07-29T14:06:58;3.72;;;2.00;;
52102;SDS011;38101;53.126;6.878;2023-07-29T14:09:25;4.05;;;2.08;;
52102;SDS011;38101;53.126;6.878;2023-07-29T14:11:51;4.82;;;1.88;;
52102;SDS011;38101;53.126;6.878;2023-07-29T14:14:17;3.78;;;2.00;;
52102;SDS011;38101;53.126;6.878;2023-07-29T14:16:43;3.15;;;2.00;;
52102;SDS011;38101;53.126;6.878;2023-07-29T14:19:08;2.55;;;1.30;;
52102;SDS011;38101;53.126;6.878;2023-07-29T14:21:34;4.13;;;1.60;;
52102;SDS011;38101;53.126;6.878;2023-07-29T14:24:00;2.88;;;1.60;;
52102;SDS011;38101;53.126;6.878;2023-07-29T14:26:26;2.53;;;1.52;;
52102;SDS011;38101;53.126;6.878;2023-07-29T14:28:52;2.95;;;2.00;;
52102;SDS011;38101;53.126;6.878;2023-07-29T14:31:17;5.65;;;2.13;;
52102;SDS011;38101;53.126;6.878;2023-07-29T14:33:44;4.22;;;2.25;;
52102;SDS011;38101;53.126;6.878;2023-07-29T14:36:10;3.05;;;2.10;;
52102;SDS011;38101;53.126;6.878;2023-07-29T14:38:36;2.45;;;1.90;;
52102;SDS011;38101;53.126;6.878;2023-07-29T14:41:02;5.78;;;2.20;;
52102;SDS011;38101;53.126;6.878;2023-07-29T14:43:30;4.72;;;2.38;;
52102;SDS011;38101;53.126;6.878;2023-07-29T14:45:56;4.43;;;2.13;;
52102;SDS011;38101;53.126;6.878;2023-07-29T14:48:22;5.45;;;2.60;;
52102;SDS011;38101;53.126;6.878;2023-07-29T14:50:48;4.30;;;2.30;;
52102;SDS011;38101;53.126;6.878;2023-07-29T14:53:14;4.28;;;2.50;;
52102;SDS011;38101;53.126;6.878;2023-07-29T14:55:40;4.85;;;2.60;;
52102;SDS011;38101;53.126;6.878;2023-07-29T14:58:06;4.03;;;2.20;;
52102;SDS011;38101;53.126;6.878;2023-07-29T15:00:32;3.67;;;2.33;;
52102;SDS011;38101;53.126;6.878;2023-07-29T15:02:58;4.78;;;2.53;;
52102;SDS011;38101;53.126;6.878;2023-07-29T15:05:24;4.65;;;2.60;;